sensor_id;sensor_type;location;lat;lon;timestamp;P1;durP1;ratioP1;P2;durP2;ratioP2
2021;SDS011;1015;49.756;6.994;2023-01-23T00:02:06;19.37;;;11.50;;
2021;SDS011;1015;49.756;6.994;2023-01-23T00:04:33;17.00;;;10.83;;
2021;SDS011;1015;49.756;6.994;2023-01-23T00:07:00;17.70;;;10.67;;
2021;SDS011;1015;49.756;6.994;2023-01-23T00:09:28;18.20;;;11.10;;
2021;SDS011;1015;49.756;6.994;2023-01-23T00:11:55;17.37;;;10.83;;
2021;SDS011;1015;49.756;6.994;2023-01-23T00:14:23;16.93;;;10.57;;
2021;SDS011;1015;49.756;6.994;2023-01-23T00:16:51;18.83;;;11.23;;
2021;SDS011;1015;49.756;6.994;2023-01-23T00:19:18;15.43;;;9.90;;
2021;SDS011;1015;49.756;6.994;2023-01-23T00:21:46;16.77;;;10.17;;
2021;SDS011;1015;49.756;6.994;2023-01-23T00:24:13;17.53;;;10.73;;
2021;SDS011;1015;49.756;6.994;2023-01-23T00:26:40;14.83;;;9.20;;
2021;SDS011;1015;49.756;6.994;2023-01-23T00:29:07;16.27;;;9.90;;
2021;SDS011;1015;49.756;6.994;2023-01-23T00:31:35;15.23;;;9.20;;
2021;SDS011;1015;49.756;6.994;2023-01-23T00:34:05;14.23;;;9.33;;
2021;SDS011;1015;49.756;6.994;2023-01-23T00:36:33;12.50;;;8.57;;
2021;SDS011;1015;49.756;6.994;2023-01-23T00:39:00;13.50;;;8.43;;
2021;SDS011;1015;49.756;6.994;2023-01-23T00:41:27;11.83;;;7.63;;
2021;SDS011;1015;49.756;6.994;2023-01-23T00:43:54;12.67;;;8.37;;
2021;SDS011;1015;49.756;6.994;2023-01-23T00:46:22;13.70;;;8.80;;
2021;SDS011;1015;49.756;6.994;2023-01-23T00:48:49;15.67;;;9.50;;
2021;SDS011;1015;49.756;6.994;2023-01-23T00:51:17;17.07;;;10.43;;
2021;SDS011;1015;49.756;6.994;2023-01-23T00:53:45;14.17;;;9.03;;
2021;SDS011;1015;49.756;6.994;2023-01-23T00:56:12;14.00;;;9.17;;
2021;SDS011;1015;49.756;6.994;2023-01-23T00:58:40;15.00;;;8.93;;
2021;SDS011;1015;49.756;6.994;2023-01-23T01:01:07;15.43;;;9.13;;
2021;SDS011;1015;49.756;6.994;2023-01-23T01:03:34;15.47;;;8.43;;
2021;SDS011;1015;49.756;6.994;2023-01-23T01:06:02;16.33;;;9.80;;
2021;SDS011;1015;49.756;6.994;2023-01-23T01:08:31;14.03;;;8.90;;
2021;SDS011;1015;49.756;6.994;2023-01-23T01:10:58;13.27;;;8.20;;
2021;SDS011;1015;49.756;6.994;2023-01-23T01:13:25;16.87;;;8.93;;
2021;SDS011;1015;49.756;6.994;2023-01-23T01:15:53;15.07;;;9.60;;
2021;SDS011;1015;49.756;6.994;2023-01-23T01:18:20;17.40;;;11.00;;
2021;SDS011;1015;49.756;6.994;2023-01-23T01:20:48;16.97;;;10.20;;
2021;SDS011;1015;49.756;6.994;2023-01-23T01:23:15;14.87;;;9.67;;
2021;SDS011;1015;49.756;6.994;2023-01-23T01:25:44;17.80;;;10.37;;
2021;SDS011;1015;49.756;6.994;2023-01-23T01:28:12;18.00;;;10.00;;
2021;SDS011;1015;49.756;6.994;2023-01-23T01:30:39;18.83;;;11.00;;
2021;SDS011;1015;49.756;6.994;2023-01-23T01:33:06;16.80;;;11.07;;
2021;SDS011;1015;49.756;6.994;2023-01-23T01:35:35;17.20;;;11.20;;
2021;SDS011;1015;49.756;6.994;2023-01-23T01:38:02;18.17;;;10.43;;
2021;SDS011;1015;49.756;6.994;2023-01-23T01:40:31;18.37;;;10.57;;
2021;SDS011;1015;49.756;6.994;2023-01-23T01:43:01;14.43;;;10.40;;
2021;SDS011;1015;49.756;6.994;2023-01-23T01:48:14;19.03;;;10.93;;
2021;SDS011;1015;49.756;6.994;2023-01-23T01:50:42;19.50;;;10.97;;
2021;SDS011;1015;49.756;6.994;2023-01-23T01:53:09;15.67;;;9.97;;
2021;SDS011;1015;49.756;6.994;2023-01-23T01:55:37;15.90;;;10.37;;
2021;SDS011;1015;49.756;6.994;2023-01-23T01:58:06;17.70;;;10.27;;
2021;SDS011;1015;49.756;6.994;2023-01-23T02:00:34;14.67;;;9.27;;
2021;SDS011;1015;49.756;6.994;2023-01-23T02:03:02;17.10;;;10.53;;
2021;SDS011;1015;49.756;6.994;2023-01-23T02:05:31;18.20;;;11.07;;
2021;SDS011;1015;49.756;6.994;2023-01-23T02:08:00;14.90;;;9.73;;
2021;SDS011;1015;49.756;6.994;2023-01-23T02:10:28;17.90;;;11.00;;
2021;SDS011;1015;49.756;6.994;2023-01-23T02:15:39;17.43;;;10.90;;
2021;SDS011;1015;49.756;6.994;2023-01-23T02:18:07;17.53;;;11.80;;
2021;SDS011;1015;49.756;6.994;2023-01-23T02:20:34;17.17;;;11.00;;
2021;SDS011;1015;49.756;6.994;2023-01-23T02:23:03;17.90;;;9.73;;
2021;SDS011;1015;49.756;6.994;2023-01-23T02:25:35;16.83;;;10.13;;
2021;SDS011;1015;49.756;6.994;2023-01-23T02:28:05;16.73;;;10.70;;
2021;SDS011;1015;49.756;6.994;2023-01-23T02:30:34;19.17;;;10.23;;
2021;SDS011;1015;49.756;6.994;2023-01-23T02:33:08;16.67;;;10.17;;
2021;SDS011;1015;49.756;6.994;2023-01-23T02:35:35;15.97;;;10.37;;
2021;SDS011;1015;49.756;6.994;2023-01-23T02:38:03;15.20;;;10.00;;
2021;SDS011;1015;49.756;6.994;2023-01-23T02:40:31;15.33;;;9.80;;
2021;SDS011;1015;49.756;6.994;2023-01-23T02:43:00;16.37;;;11.37;;
2021;SDS011;1015;49.756;6.994;2023-01-23T02:45:30;16.03;;;9.63;;
2021;SDS011;1015;49.756;6.994;2023-01-23T02:47:58;15.40;;;9.87;;
2021;SDS011;1015;49.756;6.994;2023-01-23T02:50:25;17.40;;;10.57;;
2021;SDS011;1015;49.756;6.994;2023-01-23T02:52:53;16.47;;;10.13;;
2021;SDS011;1015;49.756;6.994;2023-01-23T02:55:22;16.47;;;10.50;;
2021;SDS011;1015;49.756;6.994;2023-01-23T02:57:50;16.57;;;10.27;;
2021;SDS011;1015;49.756;6.994;2023-01-23T03:00:17;16.00;;;10.17;;
2021;SDS011;1015;49.756;6.994;2023-01-23T03:02:46;16.00;;;10.50;;
2021;SDS011;1015;49.756;6.994;2023-01-23T03:05:13;16.30;;;9.70;;
2021;SDS011;1015;49.756;6.994;2023-01-23T03:07:40;14.43;;;9.80;;
2021;SDS011;1015;49.756;6.994;2023-01-23T03:10:09;18.07;;;10.77;;
2021;SDS011;1015;49.756;6.994;2023-01-23T03:12:36;16.70;;;10.90;;
2021;SDS011;1015;49.756;6.994;2023-01-23T03:15:07;16.10;;;10.37;;
2021;SDS011;1015;49.756;6.994;2023-01-23T03:17:35;16.40;;;10.33;;
2021;SDS011;1015;49.756;6.994;2023-01-23T03:20:03;16.70;;;10.20;;
2021;SDS011;1015;49.756;6.994;2023-01-23T03:22:31;15.53;;;9.70;;
2021;SDS011;1015;49.756;6.994;2023-01-23T03:24:58;15.80;;;9.90;;
2021;SDS011;1015;49.756;6.994;2023-01-23T03:27:25;16.50;;;10.03;;
2021;SDS011;1015;49.756;6.994;2023-01-23T03:29:53;15.57;;;9.70;;
2021;SDS011;1015;49.756;6.994;2023-01-23T03:32:37;15.60;;;9.67;;
2021;SDS011;1015;49.756;6.994;2023-01-23T03:35:07;14.40;;;8.97;;
2021;SDS011;1015;49.756;6.994;2023-01-23T03:37:38;13.30;;;9.23;;
2021;SDS011;1015;49.756;6.994;2023-01-23T03:40:05;15.60;;;10.67;;
2021;SDS011;1015;49.756;6.994;2023-01-23T03:42:50;15.23;;;10.37;;
2021;SDS011;1015;49.756;6.994;2023-01-23T03:45:17;14.40;;;9.80;;
2021;SDS011;1015;49.756;6.994;2023-01-23T03:47:44;15.53;;;10.40;;
2021;SDS011;1015;49.756;6.994;2023-01-23T03:50:13;15.40;;;10.00;;
2021;SDS011;1015;49.756;6.994;2023-01-23T03:52:40;15.90;;;10.17;;
2021;SDS011;1015;49.756;6.994;2023-01-23T03:55:08;16.43;;;9.80;;
2021;SDS011;1015;49.756;6.994;2023-01-23T03:57:35;14.87;;;10.13;;
2021;SDS011;1015;49.756;6.994;2023-01-23T04:00:03;13.87;;;9.70;;
2021;SDS011;1015;49.756;6.994;2023-01-23T04:02:30;13.57;;;8.37;;
2021;SDS011;1015;49.756;6.994;2023-01-23T04:04:58;12.20;;;9.10;;
2021;SDS011;1015;49.756;6.994;2023-01-23T04:07:26;14.90;;;8.77;;
2021;SDS011;1015;49.756;6.994;2023-01-23T04:09:53;12.63;;;8.10;;
2021;SDS011;1015;49.756;6.994;2023-01-23T04:12:20;12.63;;;8.27;;
2021;SDS011;1015;49.756;6.994;2023-01-23T04:14:48;14.37;;;8.30;;
2021;SDS011;1015;49.756;6.994;2023-01-23T04:17:15;12.57;;;7.67;;
2021;SDS011;1015;49.756;6.994;2023-01-23T04:19:42;10.80;;;7.10;;
2021;SDS011;1015;49.756;6.994;2023-01-23T04:22:09;14.80;;;8.60;;
2021;SDS011;1015;49.756;6.994;2023-01-23T04:24:38;13.33;;;7.93;;
2021;SDS011;1015;49.756;6.994;2023-01-23T04:27:05;12.40;;;8.60;;
2021;SDS011;1015;49.756;6.994;2023-01-23T04:29:32;13.30;;;8.50;;
2021;SDS011;1015;49.756;6.994;2023-01-23T04:31:59;12.63;;;7.97;;
2021;SDS011;1015;49.756;6.994;2023-01-23T04:34:26;12.07;;;8.57;;
2021;SDS011;1015;49.756;6.994;2023-01-23T04:36:54;12.83;;;8.10;;
2021;SDS011;1015;49.756;6.994;2023-01-23T04:39:21;12.97;;;7.53;;
2021;SDS011;1015;49.756;6.994;2023-01-23T04:41:49;10.40;;;7.87;;
2021;SDS011;1015;49.756;6.994;2023-01-23T04:44:16;12.47;;;8.00;;
2021;SDS011;1015;49.756;6.994;2023-01-23T04:46:46;13.17;;;8.27;;
2021;SDS011;1015;49.756;6.994;2023-01-23T04:49:14;11.73;;;7.90;;
2021;SDS011;1015;49.756;6.994;2023-01-23T04:51:42;12.30;;;7.57;;
2021;SDS011;1015;49.756;6.994;2023-01-23T04:54:09;9.63;;;6.87;;
2021;SDS011;1015;49.756;6.994;2023-01-23T04:56:37;11.07;;;7.83;;
2021;SDS011;1015;49.756;6.994;2023-01-23T04:59:05;11.60;;;7.20;;
2021;SDS011;1015;49.756;6.994;2023-01-23T05:01:32;11.27;;;6.80;;
2021;SDS011;1015;49.756;6.994;2023-01-23T05:04:00;10.60;;;6.50;;
2021;SDS011;1015;49.756;6.994;2023-01-23T05:06:27;13.63;;;7.50;;
2021;SDS011;1015;49.756;6.994;2023-01-23T05:08:54;11.17;;;7.40;;
2021;SDS011;1015;49.756;6.994;2023-01-23T05:11:21;10.80;;;7.63;;
2021;SDS011;1015;49.756;6.994;2023-01-23T05:13:48;13.40;;;7.80;;
2021;SDS011;1015;49.756;6.994;2023-01-23T05:16:17;12.20;;;7.20;;
2021;SDS011;1015;49.756;6.994;2023-01-23T05:18:44;11.70;;;7.67;;
2021;SDS011;1015;49.756;6.994;2023-01-23T05:21:11;12.40;;;8.20;;
2021;SDS011;1015;49.756;6.994;2023-01-23T05:23:38;10.20;;;6.80;;
2021;SDS011;1015;49.756;6.994;2023-01-23T05:26:06;12.30;;;8.37;;
2021;SDS011;1015;49.756;6.994;2023-01-23T05:28:33;12.20;;;7.67;;
2021;SDS011;1015;49.756;6.994;2023-01-23T05:31:00;11.73;;;7.27;;
2021;SDS011;1015;49.756;6.994;2023-01-23T05:33:29;11.03;;;7.30;;
2021;SDS011;1015;49.756;6.994;2023-01-23T05:35:57;9.47;;;6.90;;
2021;SDS011;1015;49.756;6.994;2023-01-23T05:38:24;10.67;;;7.47;;
2021;SDS011;1015;49.756;6.994;2023-01-23T05:40:52;10.27;;;6.40;;
2021;SDS011;1015;49.756;6.994;2023-01-23T05:43:19;8.00;;;4.43;;
2021;SDS011;1015;49.756;6.994;2023-01-23T05:45:46;11.20;;;7.33;;
2021;SDS011;1015;49.756;6.994;2023-01-23T05:48:13;11.70;;;6.73;;
2021;SDS011;1015;49.756;6.994;2023-01-23T05:50:42;11.23;;;7.80;;
2021;SDS011;1015;49.756;6.994;2023-01-23T05:53:09;6.93;;;4.20;;
2021;SDS011;1015;49.756;6.994;2023-01-23T05:55:36;12.47;;;7.40;;
2021;SDS011;1015;49.756;6.994;2023-01-23T05:58:03;12.97;;;7.60;;
2021;SDS011;1015;49.756;6.994;2023-01-23T06:00:31;5.23;;;3.40;;
2021;SDS011;1015;49.756;6.994;2023-01-23T06:02:59;7.83;;;3.90;;
2021;SDS011;1015;49.756;6.994;2023-01-23T06:05:26;9.47;;;7.10;;
2021;SDS011;1015;49.756;6.994;2023-01-23T06:07:55;8.50;;;5.93;;
2021;SDS011;1015;49.756;6.994;2023-01-23T06:10:22;14.27;;;8.30;;
2021;SDS011;1015;49.756;6.994;2023-01-23T06:12:49;11.43;;;6.93;;
2021;SDS011;1015;49.756;6.994;2023-01-23T06:15:17;10.10;;;5.87;;
2021;SDS011;1015;49.756;6.994;2023-01-23T06:17:44;10.03;;;6.17;;
2021;SDS011;1015;49.756;6.994;2023-01-23T06:20:12;12.07;;;7.87;;
2021;SDS011;1015;49.756;6.994;2023-01-23T06:22:39;11.33;;;7.40;;
2021;SDS011;1015;49.756;6.994;2023-01-23T06:25:08;11.17;;;6.73;;
2021;SDS011;1015;49.756;6.994;2023-01-23T06:27:35;10.07;;;6.60;;
2021;SDS011;1015;49.756;6.994;2023-01-23T06:30:03;11.70;;;6.30;;
2021;SDS011;1015;49.756;6.994;2023-01-23T06:32:30;13.67;;;8.33;;
2021;SDS011;1015;49.756;6.994;2023-01-23T06:34:57;12.07;;;7.77;;
2021;SDS011;1015;49.756;6.994;2023-01-23T06:37:24;11.53;;;8.20;;
2021;SDS011;1015;49.756;6.994;2023-01-23T06:39:52;12.63;;;7.93;;
2021;SDS011;1015;49.756;6.994;2023-01-23T06:42:20;9.63;;;6.47;;
2021;SDS011;1015;49.756;6.994;2023-01-23T06:44:47;13.07;;;8.30;;
2021;SDS011;1015;49.756;6.994;2023-01-23T06:47:14;9.00;;;6.23;;
2021;SDS011;1015;49.756;6.994;2023-01-23T06:49:43;10.80;;;7.13;;
2021;SDS011;1015;49.756;6.994;2023-01-23T06:52:10;10.90;;;7.13;;
2021;SDS011;1015;49.756;6.994;2023-01-23T06:54:37;10.20;;;5.60;;
2021;SDS011;1015;49.756;6.994;2023-01-23T06:57:05;10.97;;;7.07;;
2021;SDS011;1015;49.756;6.994;2023-01-23T06:59:33;10.10;;;6.87;;
2021;SDS011;1015;49.756;6.994;2023-01-23T07:02:00;12.80;;;7.77;;
2021;SDS011;1015;49.756;6.994;2023-01-23T07:04:27;11.70;;;7.17;;
2021;SDS011;1015;49.756;6.994;2023-01-23T07:06:55;14.97;;;8.10;;
2021;SDS011;1015;49.756;6.994;2023-01-23T07:09:22;11.07;;;7.33;;
2021;SDS011;1015;49.756;6.994;2023-01-23T07:11:49;10.07;;;6.27;;
2021;SDS011;1015;49.756;6.994;2023-01-23T07:14:16;9.27;;;6.33;;
2021;SDS011;1015;49.756;6.994;2023-01-23T07:16:45;10.50;;;6.93;;
2021;SDS011;1015;49.756;6.994;2023-01-23T07:19:12;10.07;;;6.80;;
2021;SDS011;1015;49.756;6.994;2023-01-23T07:21:39;9.00;;;6.23;;
2021;SDS011;1015;49.756;6.994;2023-01-23T07:24:07;11.20;;;7.20;;
2021;SDS011;1015;49.756;6.994;2023-01-23T07:26:34;10.60;;;6.30;;
2021;SDS011;1015;49.756;6.994;2023-01-23T07:29:01;8.00;;;5.73;;
2021;SDS011;1015;49.756;6.994;2023-01-23T07:31:29;8.10;;;5.73;;
2021;SDS011;1015;49.756;6.994;2023-01-23T07:33:57;8.33;;;5.57;;
2021;SDS011;1015;49.756;6.994;2023-01-23T07:36:25;8.17;;;5.07;;
2021;SDS011;1015;49.756;6.994;2023-01-23T07:38:53;8.50;;;6.00;;
2021;SDS011;1015;49.756;6.994;2023-01-23T07:41:23;7.77;;;5.63;;
2021;SDS011;1015;49.756;6.994;2023-01-23T07:43:50;8.77;;;5.87;;
2021;SDS011;1015;49.756;6.994;2023-01-23T07:46:17;8.33;;;5.70;;
2021;SDS011;1015;49.756;6.994;2023-01-23T07:48:44;7.80;;;5.53;;
2021;SDS011;1015;49.756;6.994;2023-01-23T07:51:13;9.13;;;5.90;;
2021;SDS011;1015;49.756;6.994;2023-01-23T07:53:40;8.40;;;5.97;;
2021;SDS011;1015;49.756;6.994;2023-01-23T07:56:07;8.43;;;6.73;;
2021;SDS011;1015;49.756;6.994;2023-01-23T07:58:34;8.67;;;5.70;;
2021;SDS011;1015;49.756;6.994;2023-01-23T08:01:06;7.50;;;5.00;;
2021;SDS011;1015;49.756;6.994;2023-01-23T08:03:33;11.03;;;6.40;;
2021;SDS011;1015;49.756;6.994;2023-01-23T08:06:00;9.17;;;6.70;;
2021;SDS011;1015;49.756;6.994;2023-01-23T08:08:29;10.27;;;6.90;;
2021;SDS011;1015;49.756;6.994;2023-01-23T08:10:56;10.13;;;6.60;;
2021;SDS011;1015;49.756;6.994;2023-01-23T08:13:23;12.57;;;7.30;;
2021;SDS011;1015;49.756;6.994;2023-01-23T08:15:50;10.57;;;6.73;;
2021;SDS011;1015;49.756;6.994;2023-01-23T08:18:18;10.60;;;7.10;;
2021;SDS011;1015;49.756;6.994;2023-01-23T08:20:51;9.37;;;6.50;;
2021;SDS011;1015;49.756;6.994;2023-01-23T08:23:18;9.20;;;6.30;;
2021;SDS011;1015;49.756;6.994;2023-01-23T08:25:50;9.77;;;6.57;;
2021;SDS011;1015;49.756;6.994;2023-01-23T08:28:18;10.13;;;6.73;;
2021;SDS011;1015;49.756;6.994;2023-01-23T08:30:45;9.83;;;6.50;;
2021;SDS011;1015;49.756;6.994;2023-01-23T08:33:12;12.23;;;6.73;;
2021;SDS011;1015;49.756;6.994;2023-01-23T08:35:46;8.40;;;5.47;;
2021;SDS011;1015;49.756;6.994;2023-01-23T08:38:14;8.63;;;6.13;;
2021;SDS011;1015;49.756;6.994;2023-01-23T08:40:42;10.63;;;6.00;;
2021;SDS011;1015;49.756;6.994;2023-01-23T08:43:10;6.43;;;5.50;;
2021;SDS011;1015;49.756;6.994;2023-01-23T08:45:38;8.57;;;6.30;;
2021;SDS011;1015;49.756;6.994;2023-01-23T08:48:05;8.57;;;6.70;;
2021;SDS011;1015;49.756;6.994;2023-01-23T08:50:33;8.30;;;6.50;;
2021;SDS011;1015;49.756;6.994;2023-01-23T08:53:00;9.50;;;6.07;;
2021;SDS011;1015;49.756;6.994;2023-01-23T08:55:27;8.50;;;5.63;;
2021;SDS011;1015;49.756;6.994;2023-01-23T08:57:54;8.40;;;5.73;;
2021;SDS011;1015;49.756;6.994;2023-01-23T09:00:24;9.43;;;6.03;;
2021;SDS011;1015;49.756;6.994;2023-01-23T09:02:51;10.33;;;5.27;;
2021;SDS011;1015;49.756;6.994;2023-01-23T09:05:18;5.87;;;3.90;;
2021;SDS011;1015;49.756;6.994;2023-01-23T09:07:46;10.43;;;7.60;;
2021;SDS011;1015;49.756;6.994;2023-01-23T09:10:13;8.20;;;5.60;;
2021;SDS011;1015;49.756;6.994;2023-01-23T09:12:40;7.60;;;5.67;;
2021;SDS011;1015;49.756;6.994;2023-01-23T09:15:07;8.57;;;6.80;;
2021;SDS011;1015;49.756;6.994;2023-01-23T09:17:36;9.27;;;6.20;;
2021;SDS011;1015;49.756;6.994;2023-01-23T09:20:04;9.30;;;6.90;;
2021;SDS011;1015;49.756;6.994;2023-01-23T09:22:31;8.90;;;6.63;;
2021;SDS011;1015;49.756;6.994;2023-01-23T09:24:58;11.00;;;7.97;;
2021;SDS011;1015;49.756;6.994;2023-01-23T09:27:25;9.20;;;6.40;;
2021;SDS011;1015;49.756;6.994;2023-01-23T09:29:53;9.33;;;7.10;;
2021;SDS011;1015;49.756;6.994;2023-01-23T09:32:20;10.07;;;6.80;;
2021;SDS011;1015;49.756;6.994;2023-01-23T09:34:48;9.90;;;7.50;;
2021;SDS011;1015;49.756;6.994;2023-01-23T09:37:16;9.03;;;7.40;;
2021;SDS011;1015;49.756;6.994;2023-01-23T09:39:43;8.90;;;6.80;;
2021;SDS011;1015;49.756;6.994;2023-01-23T09:42:13;9.57;;;6.30;;
2021;SDS011;1015;49.756;6.994;2023-01-23T09:44:41;7.90;;;6.27;;
2021;SDS011;1015;49.756;6.994;2023-01-23T09:47:09;8.30;;;6.23;;
2021;SDS011;1015;49.756;6.994;2023-01-23T09:49:40;6.27;;;5.03;;
2021;SDS011;1015;49.756;6.994;2023-01-23T09:52:11;8.57;;;6.10;;
2021;SDS011;1015;49.756;6.994;2023-01-23T09:54:39;8.50;;;6.27;;
2021;SDS011;1015;49.756;6.994;2023-01-23T09:57:12;8.70;;;6.37;;
2021;SDS011;1015;49.756;6.994;2023-01-23T09:59:42;9.73;;;6.00;;
2021;SDS011;1015;49.756;6.994;2023-01-23T10:02:13;7.47;;;5.80;;
2021;SDS011;1015;49.756;6.994;2023-01-23T10:04:43;10.37;;;7.83;;
2021;SDS011;1015;49.756;6.994;2023-01-23T10:07:15;7.47;;;6.00;;
2021;SDS011;1015;49.756;6.994;2023-01-23T10:09:50;9.67;;;7.27;;
2021;SDS011;1015;49.756;6.994;2023-01-23T10:12:25;12.80;;;8.17;;
2021;SDS011;1015;49.756;6.994;2023-01-23T10:15:02;9.73;;;7.13;;
2021;SDS011;1015;49.756;6.994;2023-01-23T10:17:36;9.03;;;6.40;;
2021;SDS011;1015;49.756;6.994;2023-01-23T10:20:12;13.80;;;8.20;;
2021;SDS011;1015;49.756;6.994;2023-01-23T10:22:43;11.10;;;7.47;;
2021;SDS011;1015;49.756;6.994;2023-01-23T10:25:13;7.70;;;5.67;;
2021;SDS011;1015;49.756;6.994;2023-01-23T10:27:43;9.90;;;6.60;;
2021;SDS011;1015;49.756;6.994;2023-01-23T10:30:19;10.67;;;7.37;;
2021;SDS011;1015;49.756;6.994;2023-01-23T10:32:48;8.47;;;6.90;;
2021;SDS011;1015;49.756;6.994;2023-01-23T10:35:16;8.23;;;5.47;;
2021;SDS011;1015;49.756;6.994;2023-01-23T10:37:49;14.17;;;7.13;;
2021;SDS011;1015;49.756;6.994;2023-01-23T10:40:19;8.53;;;5.53;;
2021;SDS011;1015;49.756;6.994;2023-01-23T10:43:09;9.20;;;7.40;;
2021;SDS011;1015;49.756;6.994;2023-01-23T10:45:38;13.20;;;8.83;;
2021;SDS011;1015;49.756;6.994;2023-01-23T10:50:48;12.63;;;9.30;;
2021;SDS011;1015;49.756;6.994;2023-01-23T10:53:18;13.73;;;9.60;;
2021;SDS011;1015;49.756;6.994;2023-01-23T10:55:46;12.20;;;8.63;;
2021;SDS011;1015;49.756;6.994;2023-01-23T10:58:20;10.73;;;8.07;;
2021;SDS011;1015;49.756;6.994;2023-01-23T11:00:51;10.90;;;7.00;;
2021;SDS011;1015;49.756;6.994;2023-01-23T11:03:23;12.30;;;7.47;;
2021;SDS011;1015;49.756;6.994;2023-01-23T11:05:53;10.53;;;6.30;;
2021;SDS011;1015;49.756;6.994;2023-01-23T11:08:22;12.20;;;7.63;;
2021;SDS011;1015;49.756;6.994;2023-01-23T11:10:50;12.50;;;8.10;;
2021;SDS011;1015;49.756;6.994;2023-01-23T11:13:26;14.73;;;8.80;;
2021;SDS011;1015;49.756;6.994;2023-01-23T11:15:54;12.50;;;6.27;;
2021;SDS011;1015;49.756;6.994;2023-01-23T11:18:25;10.20;;;6.93;;
2021;SDS011;1015;49.756;6.994;2023-01-23T11:20:54;9.83;;;6.90;;
2021;SDS011;1015;49.756;6.994;2023-01-23T11:23:23;10.87;;;7.73;;
2021;SDS011;1015;49.756;6.994;2023-01-23T11:25:51;7.63;;;5.60;;
2021;SDS011;1015;49.756;6.994;2023-01-23T11:28:20;11.70;;;7.07;;
2021;SDS011;1015;49.756;6.994;2023-01-23T11:30:49;12.43;;;7.33;;
2021;SDS011;1015;49.756;6.994;2023-01-23T11:33:20;10.40;;;7.27;;
2021;SDS011;1015;49.756;6.994;2023-01-23T11:35:53;5.93;;;4.77;;
2021;SDS011;1015;49.756;6.994;2023-01-23T11:38:24;9.83;;;6.10;;
2021;SDS011;1015;49.756;6.994;2023-01-23T11:40:51;10.50;;;7.23;;
2021;SDS011;1015;49.756;6.994;2023-01-23T11:43:19;9.70;;;7.30;;
2021;SDS011;1015;49.756;6.994;2023-01-23T11:45:54;8.80;;;6.27;;
2021;SDS011;1015;49.756;6.994;2023-01-23T11:48:32;12.13;;;7.40;;
2021;SDS011;1015;49.756;6.994;2023-01-23T11:51:03;11.93;;;8.03;;
2021;SDS011;1015;49.756;6.994;2023-01-23T11:53:34;11.40;;;8.00;;
2021;SDS011;1015;49.756;6.994;2023-01-23T11:56:08;7.03;;;5.47;;
2021;SDS011;1015;49.756;6.994;2023-01-23T11:58:49;10.07;;;7.60;;
2021;SDS011;1015;49.756;6.994;2023-01-23T12:01:19;9.57;;;6.33;;
2021;SDS011;1015;49.756;6.994;2023-01-23T12:04:07;8.30;;;5.80;;
2021;SDS011;1015;49.756;6.994;2023-01-23T12:06:47;8.50;;;6.30;;
2021;SDS011;1015;49.756;6.994;2023-01-23T12:09:19;13.57;;;8.17;;
2021;SDS011;1015;49.756;6.994;2023-01-23T12:11:53;11.47;;;7.80;;
2021;SDS011;1015;49.756;6.994;2023-01-23T12:14:23;9.40;;;6.70;;
2021;SDS011;1015;49.756;6.994;2023-01-23T12:16:56;8.23;;;6.43;;
2021;SDS011;1015;49.756;6.994;2023-01-23T12:19:38;10.17;;;7.17;;
2021;SDS011;1015;49.756;6.994;2023-01-23T12:22:12;8.33;;;5.47;;
2021;SDS011;1015;49.756;6.994;2023-01-23T12:24:46;10.93;;;6.87;;
2021;SDS011;1015;49.756;6.994;2023-01-23T12:27:19;8.50;;;6.53;;
2021;SDS011;1015;49.756;6.994;2023-01-23T12:30:04;5.50;;;4.13;;
2021;SDS011;1015;49.756;6.994;2023-01-23T12:32:42;9.53;;;6.53;;
2021;SDS011;1015;49.756;6.994;2023-01-23T12:35:16;8.87;;;6.70;;
2021;SDS011;1015;49.756;6.994;2023-01-23T12:37:50;10.50;;;7.83;;
2021;SDS011;1015;49.756;6.994;2023-01-23T12:40:23;8.97;;;6.87;;
2021;SDS011;1015;49.756;6.994;2023-01-23T12:42:53;10.87;;;7.13;;
2021;SDS011;1015;49.756;6.994;2023-01-23T12:45:21;13.07;;;8.50;;
2021;SDS011;1015;49.756;6.994;2023-01-23T12:47:52;9.17;;;5.83;;
2021;SDS011;1015;49.756;6.994;2023-01-23T12:50:22;9.40;;;5.97;;
2021;SDS011;1015;49.756;6.994;2023-01-23T12:52:51;10.17;;;6.87;;
2021;SDS011;1015;49.756;6.994;2023-01-23T12:55:20;7.60;;;6.10;;
2021;SDS011;1015;49.756;6.994;2023-01-23T12:57:50;5.03;;;4.30;;
2021;SDS011;1015;49.756;6.994;2023-01-23T13:00:22;7.40;;;5.13;;
2021;SDS011;1015;49.756;6.994;2023-01-23T13:02:52;4.20;;;3.20;;
2021;SDS011;1015;49.756;6.994;2023-01-23T13:05:22;8.10;;;6.00;;
2021;SDS011;1015;49.756;6.994;2023-01-23T13:07:53;7.43;;;5.87;;
2021;SDS011;1015;49.756;6.994;2023-01-23T13:10:27;6.50;;;4.43;;
2021;SDS011;1015;49.756;6.994;2023-01-23T13:13:17;6.83;;;5.53;;
2021;SDS011;1015;49.756;6.994;2023-01-23T13:15:48;9.57;;;6.50;;
2021;SDS011;1015;49.756;6.994;2023-01-23T13:18:26;8.23;;;6.17;;
2021;SDS011;1015;49.756;6.994;2023-01-23T13:20:55;7.97;;;5.50;;
2021;SDS011;1015;49.756;6.994;2023-01-23T13:23:40;7.67;;;5.60;;
2021;SDS011;1015;49.756;6.994;2023-01-23T13:28:55;8.40;;;6.03;;
2021;SDS011;1015;49.756;6.994;2023-01-23T13:31:26;10.57;;;7.10;;
2021;SDS011;1015;49.756;6.994;2023-01-23T13:33:58;9.33;;;6.60;;
2021;SDS011;1015;49.756;6.994;2023-01-23T13:36:27;9.80;;;6.97;;
2021;SDS011;1015;49.756;6.994;2023-01-23T13:41:50;16.10;;;9.87;;
2021;SDS011;1015;49.756;6.994;2023-01-23T13:47:07;10.10;;;7.10;;
2021;SDS011;1015;49.756;6.994;2023-01-23T13:49:59;10.07;;;7.53;;
2021;SDS011;1015;49.756;6.994;2023-01-23T13:52:28;7.50;;;6.53;;
2021;SDS011;1015;49.756;6.994;2023-01-23T13:55:15;12.10;;;7.90;;
2021;SDS011;1015;49.756;6.994;2023-01-23T13:58:02;13.57;;;8.50;;
2021;SDS011;1015;49.756;6.994;2023-01-23T14:00:30;9.67;;;7.20;;
2021;SDS011;1015;49.756;6.994;2023-01-23T14:03:01;9.37;;;7.30;;
2021;SDS011;1015;49.756;6.994;2023-01-23T14:06:01;9.80;;;6.87;;
2021;SDS011;1015;49.756;6.994;2023-01-23T14:08:45;7.53;;;5.23;;
2021;SDS011;1015;49.756;6.994;2023-01-23T14:11:12;6.60;;;4.80;;
2021;SDS011;1015;49.756;6.994;2023-01-23T14:13:45;9.10;;;6.60;;
2021;SDS011;1015;49.756;6.994;2023-01-23T14:16:12;9.70;;;6.83;;
2021;SDS011;1015;49.756;6.994;2023-01-23T14:18:47;7.97;;;7.00;;
2021;SDS011;1015;49.756;6.994;2023-01-23T14:21:16;7.67;;;6.67;;
2021;SDS011;1015;49.756;6.994;2023-01-23T14:23:47;7.13;;;5.23;;
2021;SDS011;1015;49.756;6.994;2023-01-23T14:26:15;8.10;;;6.03;;
2021;SDS011;1015;49.756;6.994;2023-01-23T14:28:49;8.50;;;6.87;;
2021;SDS011;1015;49.756;6.994;2023-01-23T14:31:19;6.50;;;5.80;;
2021;SDS011;1015;49.756;6.994;2023-01-23T14:33:48;8.60;;;6.30;;
2021;SDS011;1015;49.756;6.994;2023-01-23T14:36:16;7.40;;;5.77;;
2021;SDS011;1015;49.756;6.994;2023-01-23T14:38:44;8.20;;;5.47;;
2021;SDS011;1015;49.756;6.994;2023-01-23T14:41:12;8.23;;;5.10;;
2021;SDS011;1015;49.756;6.994;2023-01-23T14:43:40;6.87;;;6.00;;
2021;SDS011;1015;49.756;6.994;2023-01-23T14:46:12;6.90;;;4.30;;
2021;SDS011;1015;49.756;6.994;2023-01-23T14:48:40;8.00;;;6.43;;
2021;SDS011;1015;49.756;6.994;2023-01-23T14:51:13;7.60;;;5.40;;
2021;SDS011;1015;49.756;6.994;2023-01-23T14:53:42;5.10;;;3.60;;
2021;SDS011;1015;49.756;6.994;2023-01-23T14:56:09;6.97;;;4.97;;
2021;SDS011;1015;49.756;6.994;2023-01-23T14:58:37;7.07;;;4.87;;
2021;SDS011;1015;49.756;6.994;2023-01-23T15:01:05;8.03;;;6.40;;
2021;SDS011;1015;49.756;6.994;2023-01-23T15:03:33;6.97;;;5.40;;
2021;SDS011;1015;49.756;6.994;2023-01-23T15:06:00;7.33;;;6.20;;
2021;SDS011;1015;49.756;6.994;2023-01-23T15:08:30;9.83;;;7.07;;
2021;SDS011;1015;49.756;6.994;2023-01-23T15:10:59;8.83;;;6.43;;
2021;SDS011;1015;49.756;6.994;2023-01-23T15:13:28;10.07;;;7.10;;
2021;SDS011;1015;49.756;6.994;2023-01-23T15:15:58;4.43;;;4.00;;
2021;SDS011;1015;49.756;6.994;2023-01-23T15:18:26;10.57;;;6.53;;
2021;SDS011;1015;49.756;6.994;2023-01-23T15:20:55;7.90;;;6.07;;
2021;SDS011;1015;49.756;6.994;2023-01-23T15:23:26;9.63;;;7.20;;
2021;SDS011;1015;49.756;6.994;2023-01-23T15:26:10;7.27;;;5.37;;
2021;SDS011;1015;49.756;6.994;2023-01-23T15:28:38;7.03;;;5.97;;
2021;SDS011;1015;49.756;6.994;2023-01-23T15:31:18;9.23;;;7.27;;
2021;SDS011;1015;49.756;6.994;2023-01-23T15:33:47;10.30;;;7.17;;
2021;SDS011;1015;49.756;6.994;2023-01-23T15:36:22;5.30;;;4.20;;